KHYA/HYA METAR and TAF weather

Enter ICAO airport designator
Station Type Date Time Source
KHYA METAR 2019/08/18 18:56 UTC NOAA

KHYA 181856Z 20009G17KT 3SM HZ BKN004 24/22 A3003 RMK AO2 SLP169 T02440217


Station Type Date Time Source
KHYA Decoded METAR 2019/08/18 18:56 UTC NOAA

Station name not available
Aug 18, 2019 - 02:56 PM EDT / 2019.08.18 1856 UTC
Wind: from the SSW (200 degrees) at 10 MPH (9 KT) gusting to 20 MPH (17 KT):0
Visibility: 3 mile(s):0
Sky conditions: mostly cloudy
Weather: haze
Temperature: 75.9 F (24.4 C)
Dew Point: 71.1 F (21.7 C)
Relative Humidity: 84%
Pressure (altimeter): 30.03 in. Hg (1016 hPa)
ob: KHYA 181856Z 20009G17KT 3SM HZ BKN004 24/22 A3003 RMK AO2 SLP169 T02440217
cycle: 19

Station Type Date Time Source
KHYA TAF 2019/08/18 18:39 UTC NOAA

TAF
AMD KHYA 181737Z 1818/1918 17006KT P6SM BKN010 BKN025
FM190200 20006KT P6SM OVC003
FM190500 20005KT 3SM BR OVC003
FM191100 21007KT P6SM OVC003
FM191300 21008KT P6SM BKN060

Example: see airport list